createdAt,value
2023-05-12T00:02:57.609Z,4.00
2023-05-12T00:06:50.579Z,4.60
2023-05-12T00:11:02.544Z,5.20
2023-05-12T00:14:58.702Z,3.90
2023-05-12T00:18:34.588Z,3.80
2023-05-12T00:22:36.557Z,4.90
2023-05-12T00:26:35.587Z,4.30
2023-05-12T00:30:20.660Z,5.20
2023-05-12T00:34:34.555Z,5.00
2023-05-12T00:38:35.601Z,6.10
2023-05-12T00:42:27.576Z,6.70
2023-05-12T00:46:22.585Z,8.20
2023-05-12T00:50:23.659Z,7.30
2023-05-12T00:54:03.612Z,7.50
2023-05-12T00:57:51.658Z,6.20
2023-05-12T01:02:16.648Z,5.00
2023-05-12T01:05:04.652Z,4.50
2023-05-12T01:07:52.471Z,4.30
2023-05-12T01:10:43.806Z,4.70
2023-05-12T01:13:31.666Z,4.30
2023-05-12T01:16:20.735Z,2.90
2023-05-12T01:19:10.759Z,3.20
2023-05-12T01:21:58.622Z,4.50
2023-05-12T01:24:50.484Z,4.00
2023-05-12T01:27:39.648Z,4.80
2023-05-12T01:30:27.971Z,4.30
2023-05-12T01:33:15.166Z,5.00
2023-05-12T01:36:10.125Z,5.50
2023-05-12T01:38:57.388Z,4.90
2023-05-12T01:41:47.882Z,4.30
2023-05-12T01:44:35.677Z,4.60
2023-05-12T01:47:23.040Z,4.30
2023-05-12T01:50:18.371Z,3.40
2023-05-12T01:53:10.809Z,4.10
2023-05-12T01:55:59.598Z,4.80
2023-05-12T01:58:50.417Z,5.50
2023-05-12T02:01:39.360Z,3.30
2023-05-12T02:04:26.681Z,4.40
2023-05-12T02:07:16.051Z,5.10
2023-05-12T02:10:03.986Z,4.60
2023-05-12T02:12:51.701Z,5.10
2023-05-12T02:15:41.066Z,6.10
2023-05-12T02:18:32.155Z,5.60
2023-05-12T02:21:22.519Z,3.80
2023-05-12T02:24:12.368Z,4.60
2023-05-12T02:27:04.000Z,4.80
2023-05-12T02:32:43.976Z,3.80
2023-05-12T02:35:42.606Z,4.80
2023-05-12T02:38:29.680Z,4.80
2023-05-12T02:41:16.403Z,5.10
2023-05-12T02:44:03.645Z,3.90
2023-05-12T02:46:51.046Z,4.50
2023-05-12T02:49:38.498Z,4.30
2023-05-12T02:52:27.521Z,4.40
2023-05-12T02:55:15.874Z,4.90
2023-05-12T02:58:06.913Z,3.30
2023-05-12T03:01:09.326Z,4.20
2023-05-12T03:03:57.663Z,3.90
2023-05-12T03:06:45.039Z,3.90
2023-05-12T03:09:34.035Z,4.00
2023-05-12T03:12:21.491Z,4.10
2023-05-12T03:15:09.440Z,3.80
2023-05-12T03:17:56.594Z,4.70
2023-05-12T03:20:43.962Z,5.20
2023-05-12T03:23:30.807Z,4.50
2023-05-12T03:26:19.802Z,4.30
2023-05-12T03:29:06.771Z,5.00
2023-05-12T03:31:54.123Z,4.40
2023-05-12T03:34:41.832Z,5.70
2023-05-12T03:37:29.328Z,3.20
2023-05-12T03:40:19.029Z,3.30
2023-05-12T03:43:07.228Z,3.80
2023-05-12T03:45:54.587Z,5.90
2023-05-12T03:48:44.297Z,5.30
2023-05-12T03:51:32.426Z,4.40
2023-05-12T03:54:19.542Z,5.10
2023-05-12T03:57:06.378Z,4.60
2023-05-12T03:59:53.974Z,5.50
2023-05-12T04:02:43.477Z,5.20
2023-05-12T04:05:30.901Z,7.00
2023-05-12T04:08:21.153Z,4.50
2023-05-12T04:11:09.794Z,3.90
2023-05-12T04:13:57.022Z,5.00
2023-05-12T04:16:44.646Z,4.00
2023-05-12T04:19:32.361Z,4.30
2023-05-12T04:22:20.955Z,3.90
2023-05-12T04:25:10.113Z,3.40
2023-05-12T04:27:58.953Z,3.40
2023-05-12T04:30:46.332Z,3.00
2023-05-12T04:33:33.143Z,4.30
2023-05-12T04:36:20.669Z,3.90
2023-05-12T04:39:09.509Z,4.90
2023-05-12T04:41:57.538Z,3.20
2023-05-12T04:44:48.320Z,4.50
2023-05-12T04:47:35.739Z,4.90
2023-05-12T04:50:22.402Z,3.70
2023-05-12T04:53:10.943Z,4.70
2023-05-12T04:55:58.874Z,3.50
2023-05-12T04:58:48.088Z,4.40
2023-05-12T05:01:35.672Z,4.90
2023-05-12T05:04:24.004Z,5.00
2023-05-12T05:07:11.042Z,4.40
2023-05-12T05:09:57.937Z,5.00
2023-05-12T05:12:46.557Z,3.40
2023-05-12T05:15:33.560Z,3.40
2023-05-12T05:18:23.846Z,4.80
2023-05-12T05:21:11.846Z,4.40
2023-05-12T05:23:59.027Z,4.40
2023-05-12T05:26:46.157Z,4.70
2023-05-12T05:29:32.942Z,5.40
2023-05-12T05:32:19.563Z,4.10
2023-05-12T05:35:07.654Z,4.10
2023-05-12T05:37:57.542Z,4.30
2023-05-12T05:40:52.837Z,4.10
2023-05-12T05:43:41.551Z,5.00
2023-05-12T05:46:31.705Z,5.70
2023-05-12T05:49:18.834Z,4.90
2023-05-12T05:52:06.886Z,4.60
2023-05-12T05:54:53.798Z,4.70
2023-05-12T05:57:41.634Z,4.10
2023-05-12T06:00:28.864Z,5.20
2023-05-12T06:03:16.508Z,4.70
2023-05-12T06:06:04.540Z,4.30
2023-05-12T06:08:51.412Z,5.50
2023-05-12T06:11:39.550Z,5.00
2023-05-12T06:14:26.974Z,6.20
2023-05-12T06:17:15.849Z,4.50
2023-05-12T06:20:03.150Z,5.30
2023-05-12T06:22:50.144Z,5.60
2023-05-12T06:25:37.757Z,5.20
2023-05-12T06:28:25.259Z,5.40
2023-05-12T06:31:12.117Z,5.70
2023-05-12T06:33:59.860Z,4.40
2023-05-12T06:36:47.272Z,5.60
2023-05-12T06:39:34.059Z,5.50
2023-05-12T06:42:21.297Z,5.50
2023-05-12T06:45:15.075Z,4.50
2023-05-12T06:48:03.372Z,5.60
2023-05-12T06:50:50.734Z,5.30
2023-05-12T06:53:38.842Z,4.30
2023-05-12T06:56:25.886Z,4.40
2023-05-12T06:59:15.917Z,4.90
2023-05-12T07:02:03.456Z,5.00
2023-05-12T07:04:50.823Z,4.70
2023-05-12T07:07:37.515Z,3.70
2023-05-12T07:10:24.358Z,3.70
2023-05-12T07:13:12.057Z,4.40
2023-05-12T07:15:59.980Z,4.30
2023-05-12T07:18:47.303Z,3.90
2023-05-12T07:21:35.183Z,3.40
2023-05-12T07:24:22.632Z,3.20
2023-05-12T07:27:09.407Z,3.60
2023-05-12T07:29:56.335Z,3.80
2023-05-12T07:32:43.767Z,2.90
2023-05-12T07:35:31.159Z,3.40
2023-05-12T07:38:17.970Z,3.60
2023-05-12T07:41:04.946Z,3.30
2023-05-12T07:43:51.742Z,3.20
2023-05-12T07:46:44.499Z,3.40
2023-05-12T07:49:32.026Z,4.30
2023-05-12T07:52:19.029Z,4.10
2023-05-12T07:55:06.217Z,2.80
2023-05-12T07:57:56.269Z,3.50
2023-05-12T08:00:45.318Z,2.30
2023-05-12T08:03:33.698Z,2.30
2023-05-12T08:06:21.182Z,3.20
2023-05-12T08:09:08.934Z,2.40
2023-05-12T08:11:55.820Z,2.40
2023-05-12T08:14:43.725Z,2.20
2023-05-12T08:17:31.906Z,2.70
2023-05-12T08:20:19.065Z,2.10
2023-05-12T08:23:05.461Z,2.70
2023-05-12T08:25:52.659Z,3.10
2023-05-12T08:28:45.338Z,3.00
2023-05-12T08:31:33.176Z,3.20
2023-05-12T08:34:20.989Z,2.60
2023-05-12T08:37:07.953Z,3.30
2023-05-12T08:39:54.990Z,2.40
2023-05-12T08:42:49.263Z,2.40
2023-05-12T08:45:36.699Z,2.70
2023-05-12T08:48:27.224Z,2.30
2023-05-12T08:51:14.678Z,2.30
2023-05-12T08:54:03.845Z,2.40
2023-05-12T08:59:43.802Z,2.20
2023-05-12T09:02:44.674Z,2.50
2023-05-12T09:05:45.343Z,2.40
2023-05-12T09:08:35.162Z,2.80
2023-05-12T09:11:22.635Z,2.80
2023-05-12T09:14:12.639Z,3.50
2023-05-12T09:17:01.324Z,2.60
2023-05-12T09:19:48.420Z,2.40
2023-05-12T09:22:36.146Z,2.00
2023-05-12T09:25:22.964Z,2.70
2023-05-12T09:28:10.039Z,2.90
2023-05-12T09:30:56.697Z,2.40
2023-05-12T09:33:44.129Z,2.50
2023-05-12T09:36:34.603Z,2.10
2023-05-12T09:39:21.834Z,2.80
2023-05-12T09:42:12.994Z,2.50
2023-05-12T09:45:02.131Z,2.20
2023-05-12T09:47:49.110Z,2.40
2023-05-12T09:50:47.168Z,3.60
2023-05-12T09:53:40.755Z,2.10
2023-05-12T09:56:29.871Z,1.80
2023-05-12T09:59:18.928Z,1.70
2023-05-12T10:02:06.743Z,1.90
2023-05-12T10:04:58.909Z,2.20
2023-05-12T10:07:50.800Z,2.00
2023-05-12T10:10:37.631Z,1.60
2023-05-12T10:13:26.398Z,2.20
2023-05-12T10:16:15.084Z,1.60
2023-05-12T10:19:06.289Z,1.80
2023-05-12T10:21:54.498Z,1.40
2023-05-12T10:24:42.114Z,2.30
2023-05-12T10:27:29.684Z,1.90
2023-05-12T10:30:17.043Z,1.70
2023-05-12T10:33:05.341Z,2.30
2023-05-12T10:35:53.017Z,2.70
2023-05-12T10:38:40.298Z,2.40
2023-05-12T10:41:34.887Z,1.90
2023-05-12T10:44:29.575Z,1.70
2023-05-12T10:47:16.657Z,1.80
2023-05-12T10:50:03.859Z,1.40
2023-05-12T10:52:59.817Z,1.70
2023-05-12T10:55:52.946Z,1.70
2023-05-12T10:59:03.652Z,1.40
2023-05-12T11:02:02.072Z,1.90
2023-05-12T11:04:56.391Z,1.40
2023-05-12T11:10:37.527Z,2.00
2023-05-12T11:13:25.446Z,1.60
2023-05-12T11:16:13.652Z,1.80
2023-05-12T11:19:05.220Z,2.20
2023-05-12T11:21:53.408Z,2.10
2023-05-12T11:24:41.468Z,1.60
2023-05-12T11:27:29.377Z,1.70
2023-05-12T11:30:17.232Z,2.00
2023-05-12T11:33:04.818Z,1.50
2023-05-12T11:35:51.928Z,1.40
2023-05-12T11:38:49.801Z,1.80
2023-05-12T11:41:42.763Z,1.60
2023-05-12T11:44:32.436Z,1.90
2023-05-12T11:47:20.047Z,1.60
2023-05-12T11:50:08.503Z,1.90
2023-05-12T11:53:00.393Z,1.60
2023-05-12T11:55:53.558Z,2.30
2023-05-12T11:58:53.983Z,2.00
2023-05-12T12:01:46.366Z,2.90
2023-05-12T12:04:56.480Z,1.90
2023-05-12T12:07:49.229Z,2.20
2023-05-12T12:10:38.810Z,2.00
2023-05-12T12:13:28.577Z,1.90
2023-05-12T12:16:17.898Z,1.80
2023-05-12T12:19:08.845Z,1.40
2023-05-12T12:22:01.423Z,2.50
2023-05-12T12:24:48.495Z,1.80
2023-05-12T12:27:35.593Z,2.00
2023-05-12T12:30:22.471Z,1.60
2023-05-12T12:33:09.317Z,1.30
2023-05-12T12:35:57.306Z,2.00
2023-05-12T12:38:44.730Z,1.30
2023-05-12T12:41:33.052Z,2.00
2023-05-12T12:44:19.478Z,2.30
2023-05-12T12:47:08.490Z,2.50
2023-05-12T12:49:59.533Z,1.10
2023-05-12T12:52:49.150Z,2.50
2023-05-12T12:55:37.343Z,2.10
2023-05-12T12:58:25.085Z,1.90
2023-05-12T13:01:11.549Z,2.60
2023-05-12T13:04:01.686Z,2.30
2023-05-12T13:06:52.416Z,1.60
2023-05-12T13:09:42.541Z,2.30
2023-05-12T13:12:30.686Z,2.10
2023-05-12T13:15:19.467Z,2.40
2023-05-12T13:18:08.780Z,1.80
2023-05-12T13:20:55.948Z,2.20
2023-05-12T13:23:43.416Z,2.10
2023-05-12T13:26:30.280Z,2.60
2023-05-12T13:29:17.036Z,2.40
2023-05-12T13:32:06.310Z,2.70
2023-05-12T13:34:53.502Z,2.60
2023-05-12T13:37:40.852Z,2.30
2023-05-12T13:40:28.286Z,2.50
2023-05-12T13:43:15.357Z,1.50
2023-05-12T13:46:02.170Z,2.40
2023-05-12T13:48:49.379Z,2.80
2023-05-12T13:51:36.177Z,1.90
2023-05-12T13:54:24.368Z,1.90
2023-05-12T13:57:12.534Z,2.30
2023-05-12T13:59:59.983Z,2.20
2023-05-12T14:02:46.833Z,3.50
2023-05-12T14:05:33.823Z,2.10
2023-05-12T14:08:21.088Z,2.60
2023-05-12T14:11:10.471Z,2.40
2023-05-12T14:13:57.568Z,2.10
2023-05-12T14:16:44.405Z,2.40
2023-05-12T14:19:31.503Z,2.50
2023-05-12T14:22:26.510Z,2.60
2023-05-12T14:25:13.748Z,2.20
2023-05-12T14:28:01.104Z,2.70
2023-05-12T14:30:48.806Z,1.90
2023-05-12T14:33:36.030Z,2.00
2023-05-12T14:36:23.422Z,1.90
2023-05-12T14:39:10.467Z,2.00
2023-05-12T14:41:57.589Z,2.10
2023-05-12T14:44:44.708Z,1.90
2023-05-12T14:47:31.594Z,1.80
2023-05-12T14:50:19.138Z,2.10
2023-05-12T14:53:06.303Z,2.10
2023-05-12T14:55:54.076Z,1.90
2023-05-12T14:58:41.044Z,2.00
2023-05-12T15:01:28.709Z,2.00
2023-05-12T15:04:15.948Z,2.40
2023-05-12T15:07:02.900Z,2.00
2023-05-12T15:09:49.309Z,2.90
2023-05-12T15:12:36.246Z,1.80
2023-05-12T15:15:24.009Z,3.30
2023-05-12T15:18:11.006Z,2.10
2023-05-12T15:20:58.359Z,2.10
2023-05-12T15:23:45.367Z,1.90
2023-05-12T15:26:34.209Z,2.00
2023-05-12T15:29:22.694Z,1.80
2023-05-12T15:32:09.698Z,2.10
2023-05-12T15:34:58.721Z,2.60
2023-05-12T15:37:45.160Z,1.70
2023-05-12T15:40:32.057Z,2.50
2023-05-12T15:43:18.873Z,1.60
2023-05-12T15:46:05.870Z,1.60
2023-05-12T15:48:52.912Z,1.80
2023-05-12T15:51:40.013Z,3.00
2023-05-12T15:54:27.122Z,1.90
2023-05-12T15:57:14.015Z,2.70
2023-05-12T16:00:00.801Z,1.70
2023-05-12T16:02:49.916Z,1.70
2023-05-12T16:05:39.970Z,1.90
2023-05-12T16:08:27.029Z,2.30
2023-05-12T16:11:14.298Z,1.80
2023-05-12T16:14:02.762Z,2.50
2023-05-12T16:16:50.298Z,2.00
2023-05-12T16:19:38.333Z,2.30
2023-05-12T16:22:25.237Z,2.10
2023-05-12T16:25:12.539Z,2.00
2023-05-12T16:27:59.526Z,2.20
2023-05-12T16:30:47.680Z,2.10
2023-05-12T16:33:34.569Z,2.10
2023-05-12T16:36:21.756Z,3.00
2023-05-12T16:39:11.169Z,2.20
2023-05-12T16:41:58.498Z,3.40
2023-05-12T16:44:45.835Z,3.60
2023-05-12T16:47:33.700Z,3.30
2023-05-12T16:50:20.586Z,3.30
2023-05-12T16:53:07.571Z,3.30
2023-05-12T16:55:54.852Z,2.40
2023-05-12T16:58:44.391Z,2.50
2023-05-12T17:01:31.728Z,3.00
2023-05-12T17:04:19.380Z,2.40
2023-05-12T17:07:06.150Z,1.60
2023-05-12T17:09:56.373Z,2.70
2023-05-12T17:12:43.045Z,3.40
2023-05-12T17:15:30.141Z,3.30
2023-05-12T17:18:18.553Z,2.80
2023-05-12T17:21:07.397Z,3.10
2023-05-12T17:23:54.537Z,2.60
2023-05-12T17:26:46.257Z,2.50
2023-05-12T17:29:33.355Z,2.60
2023-05-12T17:32:21.381Z,2.10
2023-05-12T17:35:08.919Z,3.00
2023-05-12T17:37:56.327Z,3.20
2023-05-12T17:40:44.030Z,3.20
2023-05-12T17:43:31.077Z,3.00
2023-05-12T17:46:18.408Z,2.90
2023-05-12T17:49:06.683Z,2.70
2023-05-12T17:51:54.708Z,2.80
2023-05-12T17:54:41.548Z,2.40
2023-05-12T17:57:28.596Z,3.30
2023-05-12T18:00:15.914Z,3.00
2023-05-12T18:03:04.022Z,2.60
2023-05-12T18:05:52.251Z,2.90
2023-05-12T18:08:39.649Z,2.60
2023-05-12T18:11:26.587Z,2.40
2023-05-12T18:14:13.420Z,3.10
2023-05-12T18:17:01.049Z,3.40
2023-05-12T18:19:48.520Z,3.10
2023-05-12T18:22:37.548Z,3.20
2023-05-12T18:25:24.215Z,3.10
2023-05-12T18:28:11.494Z,3.40
2023-05-12T18:31:02.887Z,2.70
2023-05-12T18:33:53.931Z,3.10
2023-05-12T18:36:42.804Z,3.10
2023-05-12T18:39:29.820Z,5.20
2023-05-12T18:42:16.917Z,4.80
2023-05-12T18:45:05.548Z,4.60
2023-05-12T18:47:55.875Z,3.40
2023-05-12T18:50:42.751Z,4.60
2023-05-12T18:53:30.383Z,4.80
2023-05-12T18:56:18.121Z,4.20
2023-05-12T18:59:04.814Z,3.90
2023-05-12T19:01:52.473Z,3.40
2023-05-12T19:04:39.839Z,4.10
2023-05-12T19:07:27.008Z,2.90
2023-05-12T19:10:16.715Z,3.50
2023-05-12T19:13:03.978Z,3.20
2023-05-12T19:15:53.089Z,4.70
2023-05-12T19:18:39.873Z,3.90
2023-05-12T19:21:27.902Z,3.60
2023-05-12T19:24:15.002Z,3.50
2023-05-12T19:27:01.881Z,3.90
2023-05-12T19:29:49.127Z,3.50
2023-05-12T19:32:35.807Z,3.00
2023-05-12T19:35:23.650Z,3.00
2023-05-12T19:38:10.746Z,4.00
2023-05-12T19:40:57.340Z,3.00
2023-05-12T19:43:44.286Z,3.50
2023-05-12T19:46:31.101Z,4.10
2023-05-12T19:49:18.807Z,3.40
2023-05-12T19:52:06.061Z,3.50
2023-05-12T19:54:53.359Z,4.80
2023-05-12T19:57:40.461Z,3.50
2023-05-12T20:00:27.063Z,3.80
2023-05-12T20:03:14.730Z,4.10
2023-05-12T20:06:01.855Z,4.60
2023-05-12T20:08:50.031Z,4.60
2023-05-12T20:11:36.569Z,4.20
2023-05-12T20:14:23.272Z,3.50
2023-05-12T20:17:11.234Z,4.00
2023-05-12T20:19:58.699Z,3.70
2023-05-12T20:22:46.189Z,3.50
2023-05-12T20:25:33.531Z,3.30
2023-05-12T20:28:24.006Z,3.00
2023-05-12T20:31:11.658Z,3.50
2023-05-12T20:33:58.581Z,3.70
2023-05-12T20:36:47.018Z,4.00
2023-05-12T20:39:33.699Z,3.10
2023-05-12T20:42:20.775Z,4.40
2023-05-12T20:45:08.041Z,3.10
2023-05-12T20:47:54.931Z,4.40
2023-05-12T20:50:42.295Z,3.90
2023-05-12T20:53:29.088Z,3.70
2023-05-12T20:56:16.241Z,3.90
2023-05-12T20:59:03.031Z,3.30
2023-05-12T21:01:52.238Z,4.90
2023-05-12T21:04:39.078Z,4.00
2023-05-12T21:07:25.612Z,4.70
2023-05-12T21:10:13.343Z,3.70
2023-05-12T21:13:00.582Z,4.90
2023-05-12T21:15:47.589Z,3.20
2023-05-12T21:18:34.142Z,3.20
2023-05-12T21:21:21.536Z,3.50
2023-05-12T21:24:08.681Z,3.80
2023-05-12T21:26:56.653Z,4.30
2023-05-12T21:29:43.318Z,4.40
2023-05-12T21:32:30.570Z,4.30
2023-05-12T21:35:18.502Z,4.60
2023-05-12T21:38:07.512Z,3.80
2023-05-12T21:40:56.439Z,4.00
2023-05-12T21:43:43.718Z,4.00
2023-05-12T21:46:30.360Z,3.90
2023-05-12T21:49:16.895Z,3.80
2023-05-12T21:52:04.261Z,4.40
2023-05-12T21:54:51.684Z,4.90
2023-05-12T21:57:38.106Z,3.90
2023-05-12T22:00:26.268Z,3.20
2023-05-12T22:03:13.482Z,4.30
2023-05-12T22:06:00.750Z,4.50
2023-05-12T22:08:47.276Z,3.50
2023-05-12T22:11:33.958Z,4.20
2023-05-12T22:14:21.199Z,3.30
2023-05-12T22:17:07.732Z,4.60
2023-05-12T22:19:54.405Z,5.70
2023-05-12T22:22:41.030Z,5.60
2023-05-12T22:25:27.810Z,5.10
2023-05-12T22:28:14.790Z,4.60
2023-05-12T22:31:01.551Z,5.10
2023-05-12T22:33:49.186Z,5.20
2023-05-12T22:36:36.333Z,6.10
2023-05-12T22:39:24.718Z,4.70
2023-05-12T22:42:11.237Z,5.00
2023-05-12T22:45:00.894Z,5.40
2023-05-12T22:47:47.833Z,5.70
2023-05-12T22:50:34.538Z,5.60
2023-05-12T22:53:21.750Z,4.40
2023-05-12T22:56:08.414Z,4.70
2023-05-12T22:58:55.244Z,4.80
2023-05-12T23:01:41.954Z,5.80
2023-05-12T23:04:29.051Z,5.00
2023-05-12T23:07:15.956Z,4.30
2023-05-12T23:10:03.528Z,5.50
2023-05-12T23:12:50.773Z,6.00
2023-05-12T23:15:37.895Z,4.70
2023-05-12T23:18:25.536Z,5.40
2023-05-12T23:21:12.917Z,5.40
2023-05-12T23:23:59.800Z,4.60
2023-05-12T23:26:57.123Z,5.20
2023-05-12T23:29:44.401Z,4.80
2023-05-12T23:32:31.576Z,6.10
2023-05-12T23:35:18.299Z,5.10
2023-05-12T23:38:04.879Z,5.20
2023-05-12T23:40:51.669Z,5.50
2023-05-12T23:43:39.103Z,5.00
2023-05-12T23:46:27.362Z,5.60
2023-05-12T23:49:14.168Z,5.50
2023-05-12T23:52:01.191Z,6.20
2023-05-12T23:54:48.143Z,5.70
2023-05-12T23:57:34.761Z,4.90
